Time;durP1;ratioP1;P1;durP2;ratioP2;P2;SDS_P1;SDS_P2;PMS_P1;PMS_P2;Temp;Humidity;BMP_temperature;BMP_pressure;BME280_temperature;BME280_humidity;BME280_pressure;Samples;Min_cycle;Max_cycle;Signal;HPM_P1;HPM_P2
2023/06/05 05:00:07;;;;;;;3.00;2.70;;;16.90;97.20;;;;;;1727747;28;20192;-69
2023/06/05 05:01:04;;;;;;;3.33;2.92;;;16.90;97.20;;;;;;1724788;28;20316;-69
2023/06/05 05:01:56;;;;;;;4.85;2.63;;;16.90;97.20;;;;;;1720898;28;20205;-69
2023/06/05 05:02:47;;;;;;;4.03;3.00;;;16.90;97.20;;;;;;1720911;28;20217;-70
2023/06/05 05:03:39;;;;;;;2.77;2.53;;;16.90;97.20;;;;;;1720809;28;20201;-69
2023/06/05 05:04:29;;;;;;;3.63;3.13;;;16.90;97.20;;;;;;1720933;28;20684;-69
2023/06/05 05:05:22;;;;;;;5.80;3.27;;;17.00;97.20;;;;;;1720884;28;20590;-68
2023/06/05 05:06:14;;;;;;;3.38;3.15;;;17.00;97.20;;;;;;1720915;28;20213;-69
2023/06/05 05:07:06;;;;;;;3.67;3.25;;;17.00;97.20;;;;;;1719234;28;20287;-71
2023/06/05 05:07:57;;;;;;;4.05;3.20;;;17.00;97.20;;;;;;1724540;28;20200;-69
2023/06/05 05:08:49;;;;;;;3.90;2.97;;;17.00;97.20;;;;;;1720845;28;20256;-70
2023/06/05 05:09:40;;;;;;;6.32;4.10;;;17.10;97.20;;;;;;1720802;28;20711;-70
2023/06/05 05:10:31;;;;;;;3.60;3.30;;;17.10;97.20;;;;;;1720841;28;20604;-69
2023/06/05 05:11:22;;;;;;;7.18;3.22;;;17.10;97.20;;;;;;1725096;28;20204;-69
2023/06/05 05:12:14;;;;;;;3.37;3.07;;;17.10;97.20;;;;;;1727534;28;20239;-69
2023/06/05 05:13:05;;;;;;;3.17;2.85;;;17.20;97.20;;;;;;1727649;28;20201;-69
2023/06/05 05:13:56;;;;;;;3.93;3.20;;;17.20;97.20;;;;;;1727404;28;20201;-69
2023/06/05 05:14:47;;;;;;;2.83;2.63;;;17.20;97.20;;;;;;1727534;28;20443;-70
2023/06/05 05:15:40;;;;;;;4.70;3.40;;;17.20;97.20;;;;;;1714143;28;20202;-70
2023/06/05 05:16:31;;;;;;;4.55;2.90;;;17.20;97.20;;;;;;1713969;28;20202;-69
2023/06/05 05:17:23;;;;;;;8.17;3.30;;;17.20;97.20;;;;;;1714834;28;20214;-69
2023/06/05 05:18:14;;;;;;;7.47;3.75;;;17.20;97.20;;;;;;1727360;28;20279;-70
2023/06/05 05:19:06;;;;;;;5.80;3.20;;;17.30;97.20;;;;;;1727517;28;20208;-69
2023/06/05 05:19:57;;;;;;;3.85;2.75;;;17.30;97.20;;;;;;1727507;28;20471;-68
2023/06/05 05:20:49;;;;;;;4.57;3.40;;;17.30;97.20;;;;;;1727431;28;20217;-70
2023/06/05 05:21:40;;;;;;;4.63;3.08;;;17.30;97.20;;;;;;1727519;28;20211;-68
2023/06/05 05:22:32;;;;;;;4.07;3.28;;;17.40;97.20;;;;;;1727429;28;20197;-68
2023/06/05 05:23:22;;;;;;;4.55;3.53;;;17.40;97.20;;;;;;1718096;28;20201;-68
2023/06/05 05:24:14;;;;;;;4.13;3.20;;;17.40;97.20;;;;;;1714094;28;20225;-68
2023/06/05 05:25:06;;;;;;;4.78;3.03;;;17.50;97.20;;;;;;1713986;28;20206;-68
2023/06/05 05:25:58;;;;;;;5.40;3.55;;;17.50;97.20;;;;;;1713747;28;20216;-71
2023/06/05 05:26:49;;;;;;;3.67;3.22;;;17.50;97.20;;;;;;1724642;28;20228;-67
2023/06/05 05:27:41;;;;;;;3.95;3.10;;;17.50;97.20;;;;;;1722311;28;20196;-67
2023/06/05 05:28:32;;;;;;;6.70;3.00;;;17.60;97.20;;;;;;1727369;28;20632;-68
2023/06/05 05:29:24;;;;;;;4.80;3.30;;;17.60;97.20;;;;;;1727568;28;20619;-66
2023/06/05 05:30:15;;;;;;;5.07;3.08;;;17.60;97.20;;;;;;1721555;28;20202;-66
2023/06/05 05:31:08;;;;;;;4.50;3.33;;;17.70;97.20;;;;;;1718743;28;20232;-67
2023/06/05 05:31:59;;;;;;;4.20;3.78;;;17.70;97.20;;;;;;1713887;28;20445;-67
2023/06/05 05:32:51;;;;;;;5.17;3.70;;;17.70;97.20;;;;;;1714050;28;20228;-68
2023/06/05 05:33:41;;;;;;;4.50;3.33;;;17.80;97.20;;;;;;1713825;28;20217;-66
2023/06/05 05:34:34;;;;;;;5.60;3.40;;;17.80;97.20;;;;;;1713890;28;20209;-68
2023/06/05 05:35:24;;;;;;;3.92;3.30;;;17.80;97.20;;;;;;1714026;28;20209;-67
2023/06/05 05:36:16;;;;;;;4.80;3.70;;;17.90;97.20;;;;;;1714068;28;20216;-67
2023/06/05 05:37:07;;;;;;;9.57;3.92;;;17.90;97.20;;;;;;1718044;28;20219;-67
2023/06/05 05:37:59;;;;;;;3.80;3.33;;;17.90;97.20;;;;;;1721346;28;20668;-68
2023/06/05 05:38:51;;;;;;;8.10;3.42;;;18.00;97.20;;;;;;1720690;28;20567;-69
2023/06/05 05:39:42;;;;;;;7.75;3.58;;;18.00;97.20;;;;;;1720667;28;20247;-67
2023/06/05 05:40:33;;;;;;;5.88;3.30;;;18.00;97.20;;;;;;1720490;28;20221;-67
2023/06/05 05:41:26;;;;;;;4.90;3.80;;;18.10;97.20;;;;;;1720622;28;20229;-67
2023/06/05 05:42:17;;;;;;;8.20;3.70;;;18.10;97.20;;;;;;1720428;28;20208;-68
2023/06/05 05:43:09;;;;;;;7.03;3.90;;;18.10;97.20;;;;;;1720705;28;20208;-67
2023/06/05 05:43:59;;;;;;;5.70;3.60;;;18.20;97.20;;;;;;1720397;28;20452;-66
2023/06/05 05:44:51;;;;;;;10.90;3.70;;;18.20;97.20;;;;;;1720676;28;20211;-69
2023/06/05 05:45:43;;;;;;;6.85;3.22;;;18.20;97.20;;;;;;1720583;28;20231;-67
2023/06/05 05:46:36;;;;;;;5.07;3.30;;;18.30;97.20;;;;;;1720380;28;20211;-67
2023/06/05 05:47:27;;;;;;;5.22;3.60;;;18.30;97.20;;;;;;1717681;28;20206;-68
2023/06/05 05:48:19;;;;;;;13.80;4.63;;;18.30;97.20;;;;;;1727217;28;20242;-67
2023/06/05 05:49:10;;;;;;;18.15;5.10;;;18.30;97.20;;;;;;1727314;28;20205;-68
2023/06/05 05:50:02;;;;;;;9.37;3.93;;;18.40;97.20;;;;;;1727443;28;20279;-68
2023/06/05 05:50:52;;;;;;;12.02;3.55;;;18.40;97.20;;;;;;1720285;28;20217;-68
2023/06/05 05:51:44;;;;;;;7.67;4.00;;;18.40;97.20;;;;;;1713974;28;20198;-67
2023/06/05 05:52:35;;;;;;;5.88;3.75;;;18.40;97.20;;;;;;1713817;28;20202;-69
2023/06/05 05:53:27;;;;;;;10.73;4.40;;;18.50;97.20;;;;;;1713903;28;20661;-70
2023/06/05 05:54:17;;;;;;;8.35;3.60;;;18.50;97.20;;;;;;1713708;28;20209;-69
2023/06/05 05:55:10;;;;;;;9.33;4.40;;;18.50;97.20;;;;;;1713924;28;20198;-68
2023/06/05 05:56:00;;;;;;;10.15;3.95;;;18.60;97.20;;;;;;1713894;28;20212;-68
2023/06/05 05:56:52;;;;;;;10.13;4.87;;;18.60;97.20;;;;;;1713731;28;20209;-69
2023/06/05 05:57:43;;;;;;;9.43;3.53;;;18.60;97.20;;;;;;1719704;28;20216;-70
2023/06/05 05:58:35;;;;;;;7.63;3.90;;;18.60;97.20;;;;;;1719899;28;20221;-69
2023/06/05 05:59:26;;;;;;;10.20;3.85;;;18.70;97.20;;;;;;1719908;28;20263;-69
2023/06/05 06:00:18;;;;;;;7.13;3.50;;;18.70;97.20;;;;;;1719764;28;20201;-69
2023/06/05 06:01:11;;;;;;;11.68;4.25;;;18.70;97.20;;;;;;1719842;28;20201;-70
2023/06/05 06:02:09;;;;;;;8.68;3.67;;;18.80;97.20;;;;;;1719979;28;20742;-69
2023/06/05 06:03:00;;;;;;;3.80;3.40;;;18.80;97.20;;;;;;1720557;28;20205;-69
2023/06/05 06:03:51;;;;;;;4.40;3.87;;;18.80;97.20;;;;;;1720520;28;20320;-68
2023/06/05 06:04:43;;;;;;;6.72;3.65;;;18.80;97.20;;;;;;1720627;28;20216;-69
2023/06/05 06:05:37;;;;;;;6.55;4.35;;;18.80;97.20;;;;;;1720446;28;20197;-69
2023/06/05 06:06:28;;;;;;;8.50;4.00;;;18.90;97.20;;;;;;1719725;28;20239;-69
2023/06/05 06:07:20;;;;;;;10.52;4.55;;;18.90;97.20;;;;;;1719559;28;20857;-69
2023/06/05 06:08:11;;;;;;;10.45;4.30;;;18.90;97.20;;;;;;1719804;28;20241;-70
2023/06/05 06:09:04;;;;;;;12.97;4.23;;;18.90;97.20;;;;;;1719991;28;20209;-69
2023/06/05 06:09:54;;;;;;;6.63;4.30;;;19.00;97.20;;;;;;1720250;28;20684;-68
2023/06/05 06:10:46;;;;;;;7.80;4.00;;;19.00;97.20;;;;;;1720447;28;20767;-70
2023/06/05 06:11:37;;;;;;;14.88;4.15;;;19.00;97.20;;;;;;1720529;28;20205;-69
2023/06/05 06:12:29;;;;;;;21.00;4.73;;;19.00;97.20;;;;;;1720414;28;20682;-69
2023/06/05 06:13:20;;;;;;;8.75;3.60;;;19.10;97.20;;;;;;1720518;28;20451;-69
2023/06/05 06:14:12;;;;;;;8.15;4.00;;;19.10;97.20;;;;;;1720608;28;20197;-70
2023/06/05 06:15:04;;;;;;;4.57;3.45;;;19.10;97.20;;;;;;1720514;28;20212;-68
2023/06/05 06:15:55;;;;;;;13.10;3.80;;;19.20;97.20;;;;;;1720465;28;20694;-68
2023/06/05 06:16:46;;;;;;;17.88;4.35;;;19.20;97.20;;;;;;1720551;28;20212;-70
2023/06/05 06:17:39;;;;;;;10.47;4.00;;;19.20;97.20;;;;;;1720571;28;20201;-68
2023/06/05 06:18:30;;;;;;;14.68;4.95;;;19.20;97.20;;;;;;1720581;28;20668;-69
2023/06/05 06:19:23;;;;;;;14.13;4.60;;;19.30;97.20;;;;;;1720512;28;20548;-69
2023/06/05 06:20:15;;;;;;;16.70;4.18;;;19.30;97.20;;;;;;1720415;28;20795;-69
2023/06/05 06:21:07;;;;;;;12.15;4.20;;;19.40;97.20;;;;;;1720471;28;20200;-68
2023/06/05 06:21:57;;;;;;;8.60;3.65;;;19.40;97.20;;;;;;1720509;28;20215;-70
2023/06/05 06:22:49;;;;;;;13.40;5.13;;;19.40;97.20;;;;;;1718872;28;20288;-68
2023/06/05 06:23:40;;;;;;;16.88;3.95;;;19.50;97.20;;;;;;1720221;28;20205;-69
2023/06/05 06:24:32;;;;;;;9.53;3.87;;;19.50;97.20;;;;;;1720230;28;20232;-68
2023/06/05 06:25:25;;;;;;;7.95;3.60;;;19.50;97.20;;;;;;1720528;28;20779;-69
2023/06/05 06:26:17;;;;;;;14.52;4.22;;;19.60;97.20;;;;;;1720532;28;20201;-68
2023/06/05 06:27:09;;;;;;;12.68;4.32;;;19.60;97.20;;;;;;1720146;28;20208;-69
2023/06/05 06:28:01;;;;;;;10.02;4.20;;;19.60;97.20;;;;;;1720405;28;20208;-69
2023/06/05 06:28:52;;;;;;;7.05;3.42;;;19.70;97.20;;;;;;1720498;28;20205;-70
2023/06/05 06:29:48;;;;;;;16.58;3.95;;;19.70;97.20;;;;;;1720214;28;20616;-69
2023/06/05 06:30:39;;;;;;;10.40;4.20;;;19.70;97.20;;;;;;1719602;28;20261;-69
2023/06/05 06:31:31;;;;;;;12.50;4.20;;;19.70;97.20;;;;;;1720182;28;20668;-68
2023/06/05 06:32:25;;;;;;;10.63;4.72;;;19.80;97.20;;;;;;1720386;28;20204;-67
2023/06/05 06:33:18;;;;;;;5.22;4.05;;;19.80;97.20;;;;;;1720364;28;20201;-70
2023/06/05 06:34:10;;;;;;;11.38;4.35;;;19.80;97.20;;;;;;1720310;28;20220;-69
2023/06/05 06:35:01;;;;;;;17.10;5.07;;;19.90;97.20;;;;;;1720508;28;20204;-69
2023/06/05 06:35:52;;;;;;;9.15;4.75;;;19.90;97.20;;;;;;1720408;28;20610;-69
2023/06/05 06:36:46;;;;;;;5.17;3.77;;;19.90;97.20;;;;;;1717816;28;20216;-69
2023/06/05 06:37:37;;;;;;;8.13;3.83;;;19.90;97.20;;;;;;1713703;28;20641;-69
2023/06/05 06:38:30;;;;;;;6.43;3.90;;;19.90;97.20;;;;;;1713654;28;20205;-69
2023/06/05 06:39:22;;;;;;;8.90;4.00;;;19.90;97.20;;;;;;1713783;28;20275;-69
2023/06/05 06:40:14;;;;;;;4.35;3.30;;;19.90;97.20;;;;;;1713501;28;20261;-69
2023/06/05 06:41:04;;;;;;;5.82;3.47;;;19.90;97.20;;;;;;1717562;28;20216;-69
2023/06/05 06:41:57;;;;;;;8.13;4.20;;;20.00;97.20;;;;;;1719082;28;20229;-68
2023/06/05 06:42:48;;;;;;;15.15;4.80;;;20.00;97.20;;;;;;1716709;28;20206;-68
2023/06/05 06:43:40;;;;;;;16.42;4.22;;;20.00;97.20;;;;;;1714231;28;20577;-69
2023/06/05 06:44:31;;;;;;;5.25;3.63;;;20.00;97.20;;;;;;1720383;28;20209;-68
2023/06/05 06:45:22;;;;;;;6.80;4.10;;;20.00;97.20;;;;;;1718774;28;20202;-69
2023/06/05 06:46:13;;;;;;;7.75;3.85;;;20.00;97.20;;;;;;1720455;28;20209;-69
2023/06/05 06:47:05;;;;;;;14.23;4.17;;;20.00;97.20;;;;;;1719833;28;20209;-68
2023/06/05 06:47:56;;;;;;;14.90;4.85;;;20.10;97.20;;;;;;1720374;28;20209;-68
2023/06/05 06:48:49;;;;;;;8.53;4.47;;;20.10;97.20;;;;;;1720467;28;20209;-70
2023/06/05 06:49:40;;;;;;;8.65;3.63;;;20.10;97.20;;;;;;1720475;28;20205;-68
2023/06/05 06:50:32;;;;;;;4.75;3.70;;;20.20;97.20;;;;;;1720383;28;20231;-69
2023/06/05 06:51:24;;;;;;;10.93;4.28;;;20.20;97.20;;;;;;1720437;28;20201;-69
2023/06/05 06:52:16;;;;;;;13.55;4.95;;;20.20;97.20;;;;;;1720093;28;20216;-68
2023/06/05 06:53:08;;;;;;;9.63;3.80;;;20.20;97.20;;;;;;1720412;28;20679;-69
2023/06/05 06:53:58;;;;;;;17.23;4.60;;;20.30;97.20;;;;;;1720422;28;20205;-70
2023/06/05 06:54:50;;;;;;;8.47;4.50;;;20.30;97.20;;;;;;1720315;28;20212;-69
2023/06/05 06:55:41;;;;;;;4.15;3.67;;;20.30;97.20;;;;;;1720356;28;20669;-69
2023/06/05 06:56:33;;;;;;;19.83;4.47;;;20.30;97.20;;;;;;1720350;28;20649;-69
2023/06/05 06:57:24;;;;;;;5.15;4.00;;;20.40;97.20;;;;;;1719934;28;20464;-68
2023/06/05 06:58:16;;;;;;;13.97;4.60;;;20.40;97.20;;;;;;1720216;28;20189;-68
2023/06/05 06:59:14;;;;;;;13.63;4.28;;;20.40;97.20;;;;;;1719236;28;20221;-69
2023/06/05 07:00:09;;;;;;;13.73;4.70;;;20.40;97.20;;;;;;1713606;28;20206;-68
2023/06/05 07:01:01;;;;;;;6.47;3.90;;;20.50;97.20;;;;;;1713495;28;20233;-69
2023/06/05 07:02:11;;;;;;;16.85;4.22;;;20.50;97.20;;;;;;1713530;28;20213;-68
2023/06/05 07:03:03;;;;;;;8.18;3.80;;;20.50;97.20;;;;;;1713627;28;20612;-69
2023/06/05 07:03:55;;;;;;;6.60;3.45;;;20.50;97.20;;;;;;1713545;28;20210;-69
2023/06/05 07:04:48;;;;;;;9.85;4.40;;;20.50;97.20;;;;;;1713587;28;20209;-69
2023/06/05 07:05:39;;;;;;;8.85;3.90;;;20.50;97.20;;;;;;1713556;28;20305;-69
2023/06/05 07:06:30;;;;;;;4.17;3.20;;;20.50;97.20;;;;;;1713692;28;20318;-69
2023/06/05 07:07:21;;;;;;;5.32;3.38;;;20.60;97.20;;;;;;1713035;28;20666;-70
2023/06/05 07:08:13;;;;;;;12.13;4.43;;;20.60;97.20;;;;;;1713457;28;20602;-69
2023/06/05 07:09:04;;;;;;;11.95;4.55;;;20.60;97.20;;;;;;1713585;28;20449;-69
2023/06/05 07:09:57;;;;;;;7.37;3.80;;;20.60;97.20;;;;;;1713530;28;20198;-68
2023/06/05 07:10:48;;;;;;;11.05;4.22;;;20.70;97.20;;;;;;1713522;28;20496;-68
2023/06/05 07:11:40;;;;;;;7.90;3.77;;;20.70;97.20;;;;;;1713474;28;20206;-69
2023/06/05 07:12:30;;;;;;;14.23;4.82;;;20.70;97.20;;;;;;1713439;28;20198;-69
2023/06/05 07:13:22;;;;;;;15.23;4.90;;;20.70;97.20;;;;;;1718385;28;20189;-70
2023/06/05 07:14:13;;;;;;;12.45;3.95;;;20.80;97.20;;;;;;1720234;28;20271;-70
2023/06/05 07:15:06;;;;;;;6.80;3.70;;;20.80;97.20;;;;;;1720275;28;20201;-68
2023/06/05 07:15:57;;;;;;;4.60;3.97;;;20.80;97.20;;;;;;1720209;28;20205;-68
2023/06/05 07:16:51;;;;;;;4.93;4.00;;;20.90;97.20;;;;;;1719849;28;20228;-69
2023/06/05 07:17:43;;;;;;;5.43;3.78;;;20.90;97.20;;;;;;1720342;28;20202;-69
2023/06/05 07:18:34;;;;;;;18.08;5.32;;;20.90;97.20;;;;;;1720209;28;20213;-68
2023/06/05 07:19:27;;;;;;;11.33;4.60;;;20.90;97.20;;;;;;1720428;28;20201;-69
2023/06/05 07:20:18;;;;;;;14.85;4.70;;;21.00;97.20;;;;;;1720246;28;20197;-69
2023/06/05 07:21:10;;;;;;;27.50;6.73;;;21.00;97.20;;;;;;1721376;28;20261;-69
2023/06/05 07:22:04;;;;;;;14.25;5.50;;;21.10;97.20;;;;;;1721295;28;20956;-69
2023/06/05 07:22:56;;;;;;;29.88;5.85;;;21.10;97.20;;;;;;1721367;28;20197;-69
2023/06/05 07:23:47;;;;;;;21.90;7.07;;;21.10;97.20;;;;;;1721396;28;20212;-69
2023/06/05 07:24:40;;;;;;;15.35;5.05;;;21.20;97.20;;;;;;1721411;28;20256;-69
2023/06/05 07:25:30;;;;;;;29.48;6.03;;;21.20;97.20;;;;;;1721392;28;20213;-69
2023/06/05 07:26:24;;;;;;;42.37;6.70;;;21.30;97.20;;;;;;1721527;28;20272;-68
2023/06/05 07:27:15;;;;;;;20.90;5.03;;;21.30;97.20;;;;;;1714471;28;20835;-68
2023/06/05 07:28:11;;;;;;;22.73;5.37;;;21.40;97.20;;;;;;1714588;28;20596;-68
2023/06/05 07:29:02;;;;;;;8.52;4.40;;;21.50;97.20;;;;;;1714769;28;20210;-69
2023/06/05 07:29:54;;;;;;;22.90;6.47;;;21.50;97.20;;;;;;1714684;28;20237;-68
2023/06/05 07:30:45;;;;;;;8.27;4.45;;;21.50;97.20;;;;;;1714619;28;20283;-69
2023/06/05 07:31:36;;;;;;;10.83;5.10;;;21.60;97.20;;;;;;1714667;28;20205;-68
2023/06/05 07:32:27;;;;;;;11.57;5.32;;;21.60;97.20;;;;;;1714518;28;20465;-69
2023/06/05 07:33:20;;;;;;;13.53;5.50;;;21.70;97.20;;;;;;1714671;28;20202;-70
2023/06/05 07:34:12;;;;;;;22.35;6.25;;;21.70;97.20;;;;;;1714707;28;20224;-69
2023/06/05 07:35:07;;;;;;;10.32;4.65;;;21.80;97.20;;;;;;1714737;28;20198;-68
2023/06/05 07:35:59;;;;;;;11.25;4.30;;;21.80;97.20;;;;;;1714626;28;20208;-69
2023/06/05 07:36:52;;;;;;;17.48;6.22;;;21.80;97.20;;;;;;1714203;28;20264;-69
2023/06/05 07:37:43;;;;;;;13.10;4.68;;;21.90;97.20;;;;;;1714620;28;20259;-69
2023/06/05 07:38:34;;;;;;;13.07;4.87;;;21.90;97.20;;;;;;1714403;28;20249;-69
2023/06/05 07:39:25;;;;;;;20.60;5.55;;;22.00;97.20;;;;;;1714726;28;20229;-69
2023/06/05 07:40:17;;;;;;;11.20;5.27;;;22.00;97.20;;;;;;1714957;28;20218;-68
2023/06/05 07:41:11;;;;;;;6.30;4.43;;;22.10;97.20;;;;;;1721420;28;20213;-69
2023/06/05 07:42:03;;;;;;;19.25;6.55;;;22.10;97.20;;;;;;1721107;28;20219;-69
2023/06/05 07:42:53;;;;;;;14.65;5.10;;;22.10;97.20;;;;;;1721341;28;20583;-69
2023/06/05 07:43:45;;;;;;;16.17;5.93;;;22.10;97.20;;;;;;1721408;28;20209;-70
2023/06/05 07:44:36;;;;;;;10.52;5.25;;;22.10;97.20;;;;;;1721396;28;20590;-69
2023/06/05 07:45:27;;;;;;;10.37;5.33;;;22.20;97.20;;;;;;1721497;28;20573;-68
2023/06/05 07:46:18;;;;;;;9.73;5.25;;;22.20;97.20;;;;;;1721245;28;20201;-69
2023/06/05 07:47:10;;;;;;;9.50;5.00;;;22.20;97.20;;;;;;1720782;28;20197;-69
2023/06/05 07:48:00;;;;;;;10.38;5.10;;;22.20;97.20;;;;;;1721099;28;20595;-68
2023/06/05 07:48:52;;;;;;;5.97;4.73;;;22.30;97.20;;;;;;1721269;28;20648;-68
2023/06/05 07:49:43;;;;;;;13.80;5.63;;;22.30;97.20;;;;;;1721332;28;20205;-68
2023/06/05 07:50:36;;;;;;;10.23;5.70;;;22.30;97.20;;;;;;1721168;28;20221;-68
2023/06/05 07:51:27;;;;;;;6.57;4.95;;;22.30;97.20;;;;;;1721371;28;20205;-69
2023/06/05 07:52:18;;;;;;;10.07;5.00;;;22.30;97.20;;;;;;1721042;28;20292;-68
2023/06/05 07:53:09;;;;;;;14.57;6.32;;;22.30;97.20;;;;;;1721036;28;20955;-68
2023/06/05 07:54:01;;;;;;;10.90;5.23;;;22.30;97.20;;;;;;1720252;28;20720;-68
2023/06/05 07:54:52;;;;;;;9.15;6.40;;;22.30;97.20;;;;;;1714564;28;20208;-68
2023/06/05 07:55:44;;;;;;;10.70;5.50;;;22.30;97.20;;;;;;1714552;28;20204;-70
2023/06/05 07:56:35;;;;;;;15.13;6.53;;;22.40;97.20;;;;;;1714478;28;20251;-68
2023/06/05 07:57:28;;;;;;;10.70;5.80;;;22.40;97.20;;;;;;1714188;28;20206;-69
2023/06/05 07:58:19;;;;;;;8.85;5.90;;;22.40;97.20;;;;;;1714455;28;20256;-71
2023/06/05 07:59:14;;;;;;;19.37;5.90;;;22.40;97.20;;;;;;1714491;28;20198;-68
2023/06/05 08:00:06;;;;;;;14.23;6.60;;;22.40;97.20;;;;;;1714609;28;20634;-68
2023/06/05 08:00:59;;;;;;;12.48;5.95;;;22.50;97.20;;;;;;1714394;28;20260;-69
2023/06/05 08:01:50;;;;;;;24.05;7.00;;;22.50;97.20;;;;;;1714278;28;20210;-69
2023/06/05 08:02:43;;;;;;;8.93;5.50;;;22.60;97.20;;;;;;1714519;28;20202;-68
2023/06/05 08:03:34;;;;;;;7.55;5.55;;;22.60;97.20;;;;;;1714483;28;20968;-70
2023/06/05 08:04:27;;;;;;;17.58;6.85;;;22.60;97.20;;;;;;1714567;28;20587;-70
2023/06/05 08:05:19;;;;;;;23.00;8.07;;;22.60;97.20;;;;;;1714461;28;20209;-68
2023/06/05 08:06:12;;;;;;;35.60;8.18;;;22.70;97.20;;;;;;1714488;28;20620;-68
2023/06/05 08:07:03;;;;;;;33.97;8.63;;;22.80;97.20;;;;;;1715002;28;20198;-67
2023/06/05 08:07:55;;;;;;;29.38;7.95;;;22.90;97.20;;;;;;1719793;28;20197;-68
2023/06/05 08:08:45;;;;;;;45.45;9.15;;;23.00;97.20;;;;;;1720964;28;20685;-69
2023/06/05 08:09:37;;;;;;;12.23;6.40;;;23.10;97.20;;;;;;1721082;28;20746;-69
2023/06/05 08:10:28;;;;;;;21.35;6.95;;;23.20;97.20;;;;;;1721134;28;20677;-69
2023/06/05 08:11:20;;;;;;;14.20;6.43;;;23.30;97.20;;;;;;1719968;28;20600;-67
2023/06/05 08:12:10;;;;;;;19.83;6.85;;;23.40;97.20;;;;;;1717491;28;20198;-68
2023/06/05 08:13:02;;;;;;;16.07;6.13;;;23.50;97.20;;;;;;1714390;28;20222;-69
2023/06/05 08:13:53;;;;;;;15.50;7.22;;;23.50;97.20;;;;;;1720833;28;20223;-69
2023/06/05 08:14:45;;;;;;;11.03;5.93;;;23.60;97.20;;;;;;1721113;28;20240;-68
2023/06/05 08:15:36;;;;;;;21.50;6.63;;;23.70;97.20;;;;;;1721073;28;20212;-68
2023/06/05 08:16:28;;;;;;;19.63;6.93;;;23.80;97.20;;;;;;1721059;28;20208;-68
2023/06/05 08:17:18;;;;;;;17.75;5.80;;;23.80;97.20;;;;;;1720577;28;20197;-67
2023/06/05 08:18:10;;;;;;;10.57;6.20;;;23.90;97.20;;;;;;1720909;28;20201;-70
2023/06/05 08:19:01;;;;;;;11.18;6.05;;;24.00;97.20;;;;;;1721153;28;20201;-68
2023/06/05 08:19:53;;;;;;;11.45;5.63;;;24.10;97.20;;;;;;1721175;28;20201;-69
2023/06/05 08:20:45;;;;;;;7.57;5.40;;;24.10;97.20;;;;;;1721071;28;20233;-68
2023/06/05 08:21:38;;;;;;;9.63;5.25;;;24.20;97.20;;;;;;1720014;28;20206;-69
2023/06/05 08:22:29;;;;;;;8.80;6.45;;;24.30;97.20;;;;;;1727750;28;20277;-69
2023/06/05 08:23:21;;;;;;;14.48;6.53;;;24.30;97.20;;;;;;1727782;28;20192;-70
2023/06/05 08:24:11;;;;;;;23.00;7.60;;;24.40;97.20;;;;;;1727835;28;20201;-69
2023/06/05 08:25:04;;;;;;;28.87;7.50;;;24.40;97.20;;;;;;1725959;28;20204;-69
2023/06/05 08:25:55;;;;;;;24.00;7.95;;;24.50;97.20;;;;;;1720998;28;20243;-69
2023/06/05 08:26:47;;;;;;;33.07;9.20;;;24.50;97.20;;;;;;1720748;28;20202;-70
2023/06/05 08:27:37;;;;;;;25.83;7.40;;;24.60;97.20;;;;;;1720672;28;20449;-68
2023/06/05 08:28:29;;;;;;;23.70;7.33;;;24.70;97.20;;;;;;1720668;28;20232;-69
2023/06/05 08:29:20;;;;;;;13.27;6.35;;;24.70;97.20;;;;;;1721050;28;20205;-69
2023/06/05 08:30:12;;;;;;;19.87;6.97;;;24.70;97.20;;;;;;1720976;28;20215;-69
2023/06/05 08:31:05;;;;;;;37.97;8.13;;;24.70;97.20;;;;;;1721011;28;20201;-68
2023/06/05 08:31:58;;;;;;;24.58;7.72;;;24.80;97.20;;;;;;1722685;28;20224;-68
2023/06/05 08:32:49;;;;;;;17.25;7.75;;;24.80;97.20;;;;;;1727420;28;20678;-69
2023/06/05 08:33:42;;;;;;;21.50;7.33;;;24.80;97.20;;;;;;1727766;28;20846;-69
2023/06/05 08:34:35;;;;;;;13.95;6.05;;;24.90;97.20;;;;;;1727654;28;20331;-69
2023/06/05 08:35:26;;;;;;;14.95;6.68;;;24.90;97.20;;;;;;1727857;28;20704;-68
2023/06/05 08:36:17;;;;;;;22.70;7.75;;;24.90;97.20;;;;;;1727732;28;20201;-68
2023/06/05 08:37:11;;;;;;;25.00;7.80;;;24.90;97.20;;;;;;1727220;28;20197;-70
2023/06/05 08:38:03;;;;;;;33.30;7.75;;;25.00;97.20;;;;;;1727653;28;20208;-69
2023/06/05 08:38:54;;;;;;;30.08;7.88;;;25.00;97.20;;;;;;1724625;28;20662;-69
2023/06/05 08:39:46;;;;;;;24.27;8.30;;;25.00;97.20;;;;;;1720693;28;20233;-69
2023/06/05 08:40:40;;;;;;;28.45;7.50;;;25.10;97.20;;;;;;1720855;28;20229;-69
2023/06/05 08:41:32;;;;;;;24.02;7.40;;;25.10;97.20;;;;;;1718779;28;20221;-68
2023/06/05 08:42:28;;;;;;;35.53;9.55;;;25.20;97.20;;;;;;1727445;28;20192;-69
2023/06/05 08:43:19;;;;;;;77.65;11.68;;;25.20;97.20;;;;;;1727746;28;20286;-70
2023/06/05 08:44:12;;;;;;;53.60;10.93;;;25.30;97.20;;;;;;1727738;28;20216;-69
2023/06/05 08:45:04;;;;;;;64.90;12.00;;;25.40;97.20;;;;;;1727637;28;20204;-69
2023/06/05 08:45:57;;;;;;;109.22;16.40;;;25.40;97.20;;;;;;1727681;28;20573;-70
2023/06/05 08:46:49;;;;;;;72.25;13.30;;;25.40;97.20;;;;;;1727137;28;20254;-69
2023/06/05 08:47:41;;;;;;;51.80;11.10;;;25.40;97.20;;;;;;1727703;28;20224;-68
2023/06/05 08:48:37;;;;;;;77.55;13.25;;;25.50;97.20;;;;;;1727417;28;20289;-68
2023/06/05 08:49:30;;;;;;;41.35;10.38;;;25.50;97.20;;;;;;1722548;28;20283;-69
2023/06/05 08:50:21;;;;;;;64.70;12.63;;;25.50;97.20;;;;;;1727505;28;20200;-69
2023/06/05 08:51:14;;;;;;;45.85;8.95;;;25.60;97.20;;;;;;1725848;28;20200;-70
2023/06/05 08:52:07;;;;;;;54.58;10.50;;;25.60;97.20;;;;;;1725517;28;20606;-69
2023/06/05 08:53:01;;;;;;;22.05;8.18;;;25.60;97.20;;;;;;1722020;28;20695;-68
2023/06/05 08:54:01;;;;;;;18.98;8.00;;;25.60;97.20;;;;;;1720921;28;20550;-69
2023/06/05 08:54:52;;;;;;;13.15;7.35;;;25.60;97.20;;;;;;1720882;28;20205;-68
2023/06/05 08:55:45;;;;;;;24.75;7.55;;;25.60;97.20;;;;;;1720901;28;20252;-69
2023/06/05 08:56:36;;;;;;;42.57;10.00;;;25.60;97.20;;;;;;1720903;28;20205;-68
2023/06/05 08:57:28;;;;;;;31.97;8.47;;;25.70;97.20;;;;;;1720371;28;20448;-68
2023/06/05 08:58:19;;;;;;;21.63;8.33;;;25.70;97.20;;;;;;1720369;28;20586;-68
2023/06/05 08:59:14;;;;;;;37.77;8.90;;;25.70;97.20;;;;;;1720389;28;20448;-68
2023/06/05 09:00:07;;;;;;;22.70;7.27;;;25.70;97.20;;;;;;1719644;28;20823;-69
2023/06/05 09:01:01;;;;;;;19.27;7.90;;;25.80;97.20;;;;;;1719054;28;20496;-69
2023/06/05 09:01:52;;;;;;;14.60;7.22;;;25.80;97.20;;;;;;1721639;28;20825;-69
2023/06/05 09:02:46;;;;;;;10.33;6.20;;;25.80;97.20;;;;;;1727573;28;20573;-69
2023/06/05 09:03:37;;;;;;;16.17;7.20;;;25.80;97.20;;;;;;1727545;28;20474;-69
2023/06/05 09:04:31;;;;;;;18.00;7.83;;;25.90;97.20;;;;;;1727609;28;20207;-69
2023/06/05 09:05:22;;;;;;;13.37;6.90;;;25.90;97.20;;;;;;1727549;28;20200;-69
2023/06/05 09:06:13;;;;;;;26.30;7.90;;;25.90;97.20;;;;;;1725932;28;20943;-68
2023/06/05 09:07:06;;;;;;;25.02;8.00;;;25.90;97.20;;;;;;1720367;28;20451;-69
2023/06/05 09:07:58;;;;;;;17.63;6.45;;;25.90;97.20;;;;;;1720767;28;20567;-69
2023/06/05 09:08:51;;;;;;;16.17;6.47;;;26.00;97.20;;;;;;1720638;28;20240;-69
2023/06/05 09:09:44;;;;;;;8.13;6.70;;;26.00;97.20;;;;;;1720720;28;20456;-69
2023/06/05 09:10:34;;;;;;;8.37;6.13;;;26.00;97.20;;;;;;1720658;28;20221;-69
2023/06/05 09:11:28;;;;;;;22.80;8.37;;;26.00;97.20;;;;;;1718619;28;20729;-68
2023/06/05 09:12:19;;;;;;;31.57;8.30;;;26.00;97.20;;;;;;1725773;28;20609;-69
2023/06/05 09:13:11;;;;;;;13.63;6.50;;;26.00;97.20;;;;;;1727607;28;20505;-68
2023/06/05 09:14:02;;;;;;;29.27;8.20;;;26.00;97.20;;;;;;1727545;28;20204;-68
2023/06/05 09:14:54;;;;;;;13.70;6.60;;;26.10;97.20;;;;;;1727443;28;20994;-69
2023/06/05 09:15:50;;;;;;;8.75;6.68;;;26.10;97.20;;;;;;1727519;28;20200;-69
2023/06/05 09:16:44;;;;;;;25.00;7.65;;;26.10;97.20;;;;;;1727556;28;20204;-69
2023/06/05 09:17:35;;;;;;;25.85;9.30;;;26.10;97.20;;;;;;1726908;28;20612;-69
2023/06/05 09:18:28;;;;;;;20.57;7.63;;;26.20;97.20;;;;;;1727478;28;20209;-69
2023/06/05 09:19:24;;;;;;;18.27;7.20;;;26.20;97.20;;;;;;1727218;28;20212;-68
2023/06/05 09:20:24;;;;;;;19.77;7.38;;;26.20;97.20;;;;;;1723254;28;20455;-68
2023/06/05 09:21:15;;;;;;;21.23;6.93;;;26.20;97.20;;;;;;1718734;28;20201;-68
2023/06/05 09:22:08;;;;;;;17.53;7.27;;;26.30;97.20;;;;;;1725629;28;20447;-70
2023/06/05 09:22:59;;;;;;;20.70;7.10;;;26.30;97.20;;;;;;1727453;28;20207;-69
2023/06/05 09:23:53;;;;;;;15.23;6.90;;;26.30;97.20;;;;;;1727425;28;20451;-68
2023/06/05 09:24:43;;;;;;;13.43;6.15;;;26.40;97.20;;;;;;1727491;28;20444;-69
2023/06/05 09:25:47;;;;;;;17.93;7.03;;;26.40;97.20;;;;;;1727426;28;20228;-68
2023/06/05 09:26:50;;;;;;;6.57;5.93;;;26.50;97.20;;;;;;1727433;28;20505;-69
2023/06/05 09:27:42;;;;;;;6.97;5.82;;;26.50;97.20;;;;;;1727443;28;20515;-69
2023/06/05 09:28:33;;;;;;;7.07;6.37;;;26.50;97.20;;;;;;1727225;28;20278;-69